GHB - Wetterstation

--- Lilienthal-Gleiter-Unterfranken e.V. --- (Impressum)
-> Windverlauf / Grafik
-> Barometerverlauf / Grafik
-> Wetter Links
-> WS GHB auf Windy



Bitte Uhrzeit beachten ob Daten aktuell sind!

Anzeige der letzten 100 Messwerte (~8 Stunden)
Datum Zeit Wind Richtung Richtung Böen Temperatur Feuchte Luftdruck
22.10.2021 09:29:13 5.41 km/h 259.2 ° W 10.08 km/h 4.4 °C 70 % 1018.62 hPa
22.10.2021 09:24:31 8.81 km/h 274.4 ° W 14.76 km/h 4.2 °C 70.5 % 1018.42 hPa
22.10.2021 09:19:49 8.58 km/h 237.3 ° W-SW 14.76 km/h 4.2 °C 70 % 1018.42 hPa
22.10.2021 09:15:07 8.73 km/h 247.4 ° W-SW 11.52 km/h 4.1 °C 70 % 1018.32 hPa
22.10.2021 09:10:25 6.71 km/h 238.8 ° W-SW 9.36 km/h 4.1 °C 69.5 % 1018.12 hPa
22.10.2021 09:05:42 8.86 km/h 236.9 ° W-SW 11.16 km/h 4.2 °C 70.5 % 1018.02 hPa
22.10.2021 09:01:00 5.14 km/h 227.5 ° SW 9 km/h 4.3 °C 70.5 % 1017.92 hPa
22.10.2021 08:56:18 4.64 km/h 242.4 ° W-SW 7.56 km/h 4.1 °C 71.5 % 1017.92 hPa
22.10.2021 08:51:36 6.17 km/h 228.5 ° SW 7.92 km/h 3.7 °C 72 % 1018.02 hPa
22.10.2021 08:46:53 9.69 km/h 238.4 ° W-SW 13.68 km/h 3.2 °C 73 % 1017.72 hPa
22.10.2021 08:42:11 9.77 km/h 254.6 ° W-SW 11.88 km/h 2.8 °C 71.5 % 1017.82 hPa
22.10.2021 08:37:30 10.64 km/h 255.6 ° W-SW 14.76 km/h 2.6 °C 71.5 % 1017.72 hPa
22.10.2021 08:32:48 12.67 km/h 253.9 ° W-SW 20.52 km/h 2.4 °C 71.5 % 1017.72 hPa
22.10.2021 08:28:06 9.88 km/h 247.4 ° W-SW 15.12 km/h 2.2 °C 71.5 % 1017.62 hPa
22.10.2021 08:23:24 8.35 km/h 252.9 ° W-SW 11.16 km/h 2.1 °C 72 % 1017.52 hPa
22.10.2021 08:18:43 9.16 km/h 260.7 ° W 13.32 km/h 2 °C 71 % 1017.52 hPa
22.10.2021 08:14:01 10.21 km/h 265.5 ° W 12.96 km/h 1.9 °C 72.5 % 1017.32 hPa
22.10.2021 08:06:15 7.11 km/h 266.8 ° W 9.36 km/h 1.8 °C 71 % 1017.32 hPa
22.10.2021 08:01:33 5.86 km/h 257.7 ° W-SW 9.72 km/h 1.8 °C 71 % 1017.32 hPa
22.10.2021 07:56:51 6.8 km/h 268.3 ° W 11.88 km/h 1.7 °C 71 % 1017.22 hPa
22.10.2021 07:52:10 6.46 km/h 263.8 ° W 8.28 km/h 1.7 °C 72.5 % 1017.42 hPa
22.10.2021 07:47:28 4.21 km/h 251.4 ° W-SW 8.28 km/h 1.6 °C 71 % 1017.32 hPa
22.10.2021 07:42:46 4.91 km/h 252.5 ° W-SW 8.28 km/h 1.7 °C 71 % 1017.32 hPa
22.10.2021 07:38:04 3.01 km/h 265.9 ° W 6.48 km/h 1.7 °C 71 % 1017.22 hPa
22.10.2021 07:33:22 7.46 km/h 276.4 ° W 10.08 km/h 1.7 °C 71 % 1017.22 hPa
22.10.2021 07:28:41 6.42 km/h 245.8 ° W-SW 9 km/h 1.6 °C 71 % 1017.22 hPa
22.10.2021 07:23:59 7.04 km/h 257.9 ° W-SW 12.6 km/h 1.6 °C 72.5 % 1017.22 hPa
22.10.2021 07:19:17 1.16 km/h 266.6 ° W 2.88 km/h 1.6 °C 71 % 1017.22 hPa
22.10.2021 07:14:35 3.36 km/h 247.6 ° W-SW 6.84 km/h 1.7 °C 71 % 1017.22 hPa
22.10.2021 07:09:53 4.47 km/h 248.3 ° W-SW 7.56 km/h 1.7 °C 70.5 % 1017.12 hPa
22.10.2021 07:05:11 5.61 km/h 227 ° SW 9 km/h 1.8 °C 71 % 1017.12 hPa
22.10.2021 07:00:29 7.43 km/h 216.5 ° SW 10.44 km/h 1.8 °C 70 % 1017.02 hPa
22.10.2021 06:55:47 8.43 km/h 246.8 ° W-SW 12.96 km/h 1.9 °C 71 % 1017.02 hPa
22.10.2021 06:51:05 8.08 km/h 250.8 ° W-SW 11.52 km/h 1.9 °C 71 % 1017.12 hPa
22.10.2021 06:46:24 9.08 km/h 237.6 ° W-SW 11.88 km/h 1.8 °C 71 % 1017.02 hPa
22.10.2021 06:41:42 8.92 km/h 232.9 ° SW 12.96 km/h 1.8 °C 71 % 1017.02 hPa
22.10.2021 06:33:24 8.68 km/h 235.2 ° SW 12.24 km/h 1.7 °C 71 % 1017.02 hPa
22.10.2021 06:28:43 8.72 km/h 243.7 ° W-SW 13.32 km/h 1.7 °C 70.5 % 1017.02 hPa
22.10.2021 06:24:01 6.3 km/h 228.3 ° SW 9.36 km/h 1.6 °C 71 % 1016.92 hPa
22.10.2021 06:19:19 4.84 km/h 221.4 ° SW 7.56 km/h 1.6 °C 71 % 1017.12 hPa
22.10.2021 06:14:37 3.63 km/h 223.9 ° SW 6.84 km/h 1.6 °C 71 % 1017.02 hPa
22.10.2021 06:09:55 1.62 km/h 211.1 ° S-SW 5.76 km/h 1.5 °C 71 % 1017.02 hPa
22.10.2021 06:05:13 2.83 km/h 229.8 ° SW 5.04 km/h 1.6 °C 71 % 1017.12 hPa
22.10.2021 06:00:32 4.7 km/h 234.6 ° SW 10.8 km/h 1.6 °C 71 % 1017.02 hPa
22.10.2021 05:55:50 2.28 km/h 223.9 ° SW 5.4 km/h 1.5 °C 71 % 1017.02 hPa
22.10.2021 05:51:08 2.44 km/h 237.6 ° W-SW 4.68 km/h 1.5 °C 71 % 1017.02 hPa
22.10.2021 05:46:26 1.51 km/h 252.9 ° W-SW 3.6 km/h 1.6 °C 71 % 1017.02 hPa
22.10.2021 05:41:44 0.19 km/h 191.1 ° S 2.52 km/h 1.7 °C 71 % 1017.02 hPa
22.10.2021 05:37:02 3.87 km/h 250.6 ° W-SW 8.28 km/h 1.8 °C 70.5 % 1016.92 hPa
22.10.2021 05:32:20 3.44 km/h 230.2 ° SW 4.68 km/h 1.8 °C 71 % 1016.92 hPa
22.10.2021 05:28:31 5.56 km/h 234 ° SW 10.44 km/h 1.8 °C 71 % 1016.92 hPa
22.10.2021 05:27:38 5.56 km/h 234 ° SW 10.44 km/h 1.8 °C 71 % 1016.92 hPa
22.10.2021 05:22:56 8.67 km/h 239.4 ° W-SW 11.52 km/h 1.7 °C 71 % 1016.72 hPa
22.10.2021 05:18:15 6.64 km/h 250 ° W-SW 11.16 km/h 1.6 °C 71 % 1016.72 hPa
22.10.2021 05:13:33 4.47 km/h 234.8 ° SW 8.28 km/h 1.5 °C 71 % 1016.72 hPa
22.10.2021 05:08:51 2.85 km/h 213.8 ° SW 6.48 km/h 1.4 °C 70 % 1016.72 hPa
22.10.2021 05:04:10 0.25 km/h 154.9 ° S-SO 2.16 km/h 1.4 °C 72 % 1016.82 hPa
22.10.2021 04:59:28 0.72 km/h 177.6 ° S 2.88 km/h 1.5 °C 71.5 % 1016.72 hPa
22.10.2021 04:54:46 2.09 km/h 207.7 ° S-SW 3.96 km/h 1.5 °C 71 % 1016.72 hPa
22.10.2021 04:50:04 0.1 km/h 219.7 ° SW 0.72 km/h 1.5 °C 71 % 1016.82 hPa
22.10.2021 04:45:22 0 km/h 206.4 ° S-SW 0 km/h 1.5 °C 69.5 % 1016.72 hPa
22.10.2021 04:40:40 0 km/h 195.5 ° S-SW 0 km/h 1.6 °C 71 % 1016.82 hPa
22.10.2021 04:35:58 0.02 km/h 199.5 ° S-SW 0.72 km/h 1.8 °C 70.5 % 1016.72 hPa
22.10.2021 04:31:17 0.52 km/h 268.5 ° W 1.8 km/h 1.8 °C 71 % 1016.62 hPa
22.10.2021 04:26:35 0.14 km/h 291.4 ° W-NW 0.72 km/h 1.9 °C 70.5 % 1016.72 hPa
22.10.2021 04:21:53 0.36 km/h 336.8 ° N-NW 1.8 km/h 2 °C 70.5 % 1016.62 hPa
22.10.2021 04:17:11 0.43 km/h 326.3 ° N-NW 1.44 km/h 2.1 °C 70.5 % 1016.62 hPa
22.10.2021 04:12:30 3 km/h 287 ° W-NW 6.48 km/h 2.1 °C 71 % 1016.62 hPa
22.10.2021 04:07:48 1.32 km/h 267.6 ° W 3.24 km/h 2.1 °C 71 % 1016.62 hPa
22.10.2021 04:03:06 1.09 km/h 304.6 ° NW 2.88 km/h 2.1 °C 70.5 % 1016.52 hPa
22.10.2021 03:58:24 0.05 km/h 276.2 ° W 0.72 km/h 2.2 °C 70.5 % 1016.62 hPa
22.10.2021 03:53:42 1.31 km/h 254.8 ° W-SW 3.24 km/h 2.2 °C 70.5 % 1016.52 hPa
22.10.2021 03:49:00 0.31 km/h 324.8 ° NW 1.44 km/h 2.3 °C 70 % 1016.52 hPa
22.10.2021 03:44:18 0.48 km/h 314.5 ° NW 1.44 km/h 2.4 °C 70.5 % 1016.52 hPa
22.10.2021 03:39:37 1.48 km/h 313 ° NW 3.24 km/h 2.4 °C 71 % 1016.42 hPa
22.10.2021 03:34:55 0.71 km/h 337.4 ° N-NW 1.8 km/h 2.4 °C 70.5 % 1016.52 hPa
22.10.2021 03:30:13 1.55 km/h 311.6 ° NW 2.88 km/h 2.5 °C 71.5 % 1016.42 hPa
22.10.2021 03:25:31 1.56 km/h 296.9 ° W-NW 5.4 km/h 2.6 °C 70.5 % 1016.52 hPa
22.10.2021 03:20:49 1.72 km/h 300.2 ° W-NW 2.88 km/h 2.6 °C 70.5 % 1016.62 hPa
22.10.2021 03:16:07 3.1 km/h 301.1 ° W-NW 4.32 km/h 2.6 °C 70.5 % 1016.52 hPa
22.10.2021 03:11:25 0.77 km/h 305.5 ° NW 2.88 km/h 2.6 °C 70.5 % 1016.52 hPa
22.10.2021 03:06:42 1.82 km/h 296.4 ° W-NW 2.88 km/h 2.6 °C 70 % 1016.52 hPa
22.10.2021 03:02:00 1.79 km/h 286.3 ° W-NW 3.24 km/h 2.7 °C 70.5 % 1016.52 hPa
22.10.2021 02:57:18 1.88 km/h 300 ° W-NW 6.48 km/h 2.8 °C 69.5 % 1016.52 hPa
22.10.2021 02:52:36 4.4 km/h 284.6 ° W-NW 6.84 km/h 2.8 °C 70.5 % 1016.42 hPa
22.10.2021 02:47:54 5.05 km/h 282.1 ° W-NW 9 km/h 2.8 °C 70.5 % 1016.52 hPa
22.10.2021 02:43:12 4.15 km/h 269.7 ° W 7.56 km/h 2.8 °C 70.5 % 1016.52 hPa
22.10.2021 02:38:30 2.93 km/h 268.9 ° W 5.4 km/h 2.8 °C 70.5 % 1016.42 hPa
22.10.2021 02:33:48 3.35 km/h 256.9 ° W-SW 6.48 km/h 2.8 °C 70.5 % 1016.52 hPa
22.10.2021 02:29:06 1.64 km/h 230.6 ° SW 4.68 km/h 2.7 °C 70.5 % 1016.42 hPa
22.10.2021 02:24:24 3.12 km/h 248.7 ° W-SW 8.64 km/h 2.7 °C 69.5 % 1016.42 hPa
22.10.2021 02:19:42 2.45 km/h 269.3 ° W 5.4 km/h 2.7 °C 70.5 % 1016.32 hPa
22.10.2021 02:15:00 1.93 km/h 232.9 ° SW 3.96 km/h 2.7 °C 70.5 % 1016.42 hPa
22.10.2021 02:10:18 0 km/h 189.4 ° S 0 km/h 2.7 °C 70.5 % 1016.42 hPa
22.10.2021 02:05:36 0.38 km/h 246.8 ° W-SW 1.8 km/h 2.7 °C 70.5 % 1016.32 hPa
22.10.2021 02:00:54 1.46 km/h 257.9 ° W-SW 2.88 km/h 2.7 °C 71.5 % 1016.32 hPa
22.10.2021 01:56:12 0.83 km/h 4.1 ° N 3.24 km/h 2.6 °C 71 % 1016.32 hPa
22.10.2021 01:51:30 0.13 km/h 27.5 ° N-NO 0.36 km/h 2.7 °C 70.5 % 1016.22 hPa
22.10.2021 01:46:48 0.47 km/h 252.3 ° W-SW 1.8 km/h 2.7 °C 69.5 % 1016.12 hPa
22.10.2021 01:42:06 0.67 km/h 357.6 ° N 1.8 km/h 2.7 °C 70 % 1016.12 hPa